WIDN/TNJ METAR and TAF weather

Enter ICAO airport designator
Station Type Date Time Source
WIDN METAR 2021/09/27 08:30 UTC NOAA

WIDN 270830Z 15003KT 9000 -RA SCT015CB 27/24 Q1008 RMK CB TO E


Station Type Date Time Source
WIDN Decoded METAR 2021/09/27 08:30 UTC NOAA

Station name not available
Sep 27, 2021 - 04:30 AM EDT / 2021.09.27 0830 UTC
Wind: from the SSE (150 degrees) at 3 MPH (3 KT):0
Visibility: 5 mile(s):0
Sky conditions: partly cloudy
Weather: light rain; Cumulonimbus clouds observed
Temperature: 80 F (27 C)
Dew Point: 75 F (24 C)
Relative Humidity: 83%
Pressure (altimeter): 29.77 in. Hg (1008 hPa)
ob: WIDN 270830Z 15003KT 9000 -RA SCT015CB 27/24 Q1008 RMK CB TO E
cycle: 8

Station Type Date Time Source
WIDN TAF 2011/04/08 06:00 UTC NOAA

TAF WIDN 080500Z 0806/0818 04010KT 9000 SCT020
BECMG 35010KT

Example: see airport list